createdAt,value
2022-09-02T12:15:45.202Z,1.00
2022-09-02T12:18:32.376Z,0.73
2022-09-02T12:21:24.023Z,0.77
2022-09-02T12:24:20.100Z,1.03
2022-09-02T12:27:09.010Z,0.60
2022-09-02T12:29:57.707Z,0.60
2022-09-02T12:32:51.386Z,0.73
2022-09-02T12:35:51.536Z,0.70
2022-09-02T12:38:40.244Z,0.60
2022-09-02T12:41:31.175Z,0.80
2022-09-02T12:44:59.993Z,0.80
2022-09-02T12:48:06.922Z,0.60
2022-09-02T12:50:57.438Z,0.70
2022-09-02T12:53:50.242Z,0.73
2022-09-02T12:56:37.249Z,0.80
2022-09-02T12:59:33.921Z,0.50
2022-09-02T13:02:38.282Z,0.87
2022-09-02T13:06:04.045Z,0.70
2022-09-02T13:09:16.101Z,0.50
2022-09-02T13:12:27.662Z,0.60
2022-09-02T13:15:51.703Z,0.63
2022-09-02T13:19:24.166Z,0.50
2022-09-02T13:23:01.808Z,0.80
2022-09-02T13:25:56.097Z,0.60
2022-09-02T13:28:54.771Z,0.60
2022-09-02T13:31:42.746Z,0.60
2022-09-02T13:34:30.274Z,0.67
2022-09-02T13:37:38.715Z,0.70
2022-09-02T13:40:34.111Z,0.63
2022-09-02T13:43:24.105Z,0.60
2022-09-02T13:46:11.314Z,0.70
2022-09-02T13:48:58.470Z,0.63
2022-09-02T13:51:47.349Z,0.60
2022-09-02T13:54:37.662Z,0.60
2022-09-02T13:57:28.385Z,0.50
2022-09-02T14:00:27.636Z,0.50
2022-09-02T14:03:21.125Z,0.60
2022-09-02T14:06:08.381Z,0.60
2022-09-02T14:09:01.233Z,0.60
2022-09-02T14:11:49.444Z,0.70
2022-09-02T14:14:36.797Z,0.50
2022-09-02T14:17:25.920Z,0.80
2022-09-02T14:20:15.892Z,0.50
2022-09-02T14:23:02.939Z,0.60
2022-09-02T14:25:53.539Z,0.50
2022-09-02T14:28:40.491Z,0.70
2022-09-02T14:31:30.736Z,0.57
2022-09-02T14:34:38.558Z,0.80
2022-09-02T14:37:28.534Z,0.50
2022-09-02T14:40:16.184Z,0.60
2022-09-02T14:43:04.479Z,0.60
2022-09-02T14:45:51.838Z,0.60
2022-09-02T14:48:38.990Z,0.40
2022-09-02T14:51:34.562Z,0.70
2022-09-02T14:54:44.567Z,0.40
2022-09-02T14:57:35.327Z,0.60
2022-09-02T15:00:22.901Z,0.60
2022-09-02T15:03:14.888Z,0.50
2022-09-02T15:06:01.827Z,0.60
2022-09-02T15:08:48.765Z,0.50
2022-09-02T15:11:38.381Z,0.60
2022-09-02T15:14:25.358Z,0.53
2022-09-02T15:17:15.929Z,0.57
2022-09-02T15:20:03.364Z,0.60
2022-09-02T15:22:53.224Z,0.63
2022-09-02T15:25:40.342Z,0.50
2022-09-02T15:28:27.299Z,0.43
2022-09-02T15:31:14.534Z,0.50
2022-09-02T15:34:01.842Z,0.57
2022-09-02T15:36:48.819Z,0.70
2022-09-02T15:39:36.855Z,0.47
2022-09-02T15:42:23.841Z,0.60
2022-09-02T15:45:10.938Z,0.50
2022-09-02T15:47:59.260Z,0.50
2022-09-02T15:50:46.733Z,0.60
2022-09-02T15:53:33.740Z,0.63
2022-09-02T15:56:25.907Z,0.57
2022-09-02T15:59:17.937Z,0.83
2022-09-02T16:02:04.951Z,0.50
2022-09-02T16:04:52.042Z,0.60
2022-09-02T16:07:39.013Z,0.40
2022-09-02T16:10:26.128Z,0.60
2022-09-02T16:13:14.117Z,0.50
2022-09-02T16:16:06.825Z,0.67
2022-09-02T16:18:54.529Z,0.43
2022-09-02T16:21:41.636Z,0.60
2022-09-02T16:24:28.688Z,0.57
2022-09-02T16:27:35.615Z,0.53
2022-09-02T16:30:23.781Z,0.40
2022-09-02T16:33:10.938Z,0.77
2022-09-02T16:35:57.965Z,0.40
2022-09-02T16:38:45.074Z,0.50
2022-09-02T16:41:37.755Z,0.53
2022-09-02T16:44:25.547Z,0.50
2022-09-02T16:47:13.710Z,0.50
2022-09-02T16:50:01.068Z,0.73
2022-09-02T16:52:48.028Z,0.60
2022-09-02T16:55:40.418Z,0.50
2022-09-02T16:58:30.288Z,0.60
2022-09-02T17:01:17.666Z,0.50
2022-09-02T17:04:05.330Z,0.60
2022-09-02T17:06:55.778Z,0.40
2022-09-02T17:09:42.774Z,0.57
2022-09-02T17:12:29.707Z,0.50
2022-09-02T17:15:16.711Z,0.57
2022-09-02T17:18:03.715Z,0.53
2022-09-02T17:20:51.237Z,0.57
2022-09-02T17:23:38.180Z,0.70
2022-09-02T17:26:28.967Z,0.60
2022-09-02T17:29:47.657Z,0.63
2022-09-02T17:32:28.794Z,0.80
2022-09-02T17:35:15.756Z,0.70
2022-09-02T17:38:03.202Z,0.50
2022-09-02T17:41:08.895Z,0.53
2022-09-02T17:43:56.206Z,0.50
2022-09-02T17:46:44.037Z,0.50
2022-09-02T17:49:31.095Z,0.60
2022-09-02T17:52:23.435Z,0.70
2022-09-02T17:55:10.372Z,0.60
2022-09-02T17:58:06.424Z,0.60
2022-09-02T18:00:56.846Z,0.63
2022-09-02T18:03:58.844Z,0.53
2022-09-02T18:06:50.280Z,0.67
2022-09-02T18:09:38.662Z,0.70
2022-09-02T18:12:26.746Z,0.57
2022-09-02T18:15:18.442Z,0.73
2022-09-02T18:18:06.949Z,0.90
2022-09-02T18:21:11.630Z,0.70
2022-09-02T18:24:06.341Z,0.70
2022-09-02T18:27:05.421Z,0.80
2022-09-02T18:29:59.475Z,0.83
2022-09-02T18:32:58.850Z,0.90
2022-09-02T18:35:59.824Z,1.00
2022-09-02T18:39:07.448Z,0.70
2022-09-02T18:42:15.025Z,0.70
2022-09-02T18:45:20.844Z,0.90
2022-09-02T18:48:12.227Z,0.80
2022-09-02T18:51:32.506Z,1.20
2022-09-02T18:54:30.668Z,1.10
2022-09-02T18:57:17.894Z,1.10
2022-09-02T19:00:09.343Z,1.10
2022-09-02T19:03:02.334Z,1.07
2022-09-02T19:05:49.360Z,1.13
2022-09-02T19:08:38.144Z,0.77
2022-09-02T19:11:27.186Z,1.00
2022-09-02T19:14:26.421Z,1.17
2022-09-02T19:17:13.438Z,1.27
2022-09-02T19:20:00.538Z,1.10
2022-09-02T19:22:52.180Z,1.20
2022-09-02T19:25:44.157Z,0.67
2022-09-02T19:28:31.256Z,1.17
2022-09-02T19:31:24.243Z,1.10
2022-09-02T19:34:11.250Z,1.30
2022-09-02T19:36:58.298Z,0.80
2022-09-02T19:39:45.281Z,0.83
2022-09-02T19:42:33.127Z,1.10
2022-09-02T19:45:21.637Z,1.13
2022-09-02T19:48:13.329Z,1.10
2022-09-02T19:51:00.320Z,1.00
2022-09-02T19:53:47.605Z,0.90
2022-09-02T19:56:34.978Z,1.07
2022-09-02T19:59:22.342Z,0.70
2022-09-02T20:02:09.356Z,1.03
2022-09-02T20:04:56.348Z,1.00
2022-09-02T20:07:43.314Z,0.80
2022-09-02T20:10:30.757Z,0.87
2022-09-02T20:13:17.883Z,0.90
2022-09-02T20:16:05.793Z,0.90
2022-09-02T20:18:53.875Z,0.67
2022-09-02T20:21:46.187Z,0.77
2022-09-02T20:24:34.434Z,0.70
2022-09-02T20:27:21.300Z,0.80
2022-09-02T20:30:17.255Z,1.00
2022-09-02T20:33:22.249Z,0.80
2022-09-02T20:36:25.737Z,1.03
2022-09-02T20:39:24.702Z,0.80
2022-09-02T20:42:25.354Z,0.90
2022-09-02T20:45:18.753Z,0.90
2022-09-02T20:48:30.262Z,0.97
2022-09-02T20:51:44.435Z,1.00
2022-09-02T20:54:41.625Z,1.00
2022-09-02T20:57:40.005Z,0.90
2022-09-02T21:00:27.119Z,0.90
2022-09-02T21:03:16.844Z,1.00
2022-09-02T21:06:04.205Z,1.17
2022-09-02T21:09:04.828Z,0.90
2022-09-02T21:12:00.631Z,0.80
2022-09-02T21:14:54.237Z,0.77
2022-09-02T21:17:49.590Z,0.93
2022-09-02T21:20:42.876Z,1.00
2022-09-02T21:23:38.405Z,0.77
2022-09-02T21:26:41.388Z,0.90
2022-09-02T21:29:41.964Z,1.00
2022-09-02T21:32:40.532Z,1.10
2022-09-02T21:35:47.448Z,1.00
2022-09-02T21:38:42.951Z,0.80
2022-09-02T21:41:37.148Z,1.07
2022-09-02T21:44:51.648Z,1.00
2022-09-02T21:47:41.141Z,1.00
2022-09-02T21:50:48.030Z,1.10
2022-09-02T21:54:18.610Z,1.00
2022-09-02T21:57:15.414Z,1.03
2022-09-02T22:00:10.757Z,1.10
2022-09-02T22:03:41.326Z,1.30
2022-09-02T22:06:37.845Z,1.10
2022-09-02T22:09:30.601Z,0.97
2022-09-02T22:12:18.517Z,1.03
2022-09-02T22:15:22.117Z,1.10
2022-09-02T22:18:39.237Z,0.90
2022-09-02T22:21:31.952Z,1.20
2022-09-02T22:24:29.669Z,1.20
2022-09-02T22:27:25.492Z,1.10
2022-09-02T22:30:17.448Z,1.10
2022-09-02T22:33:11.157Z,1.07
2022-09-02T22:36:06.313Z,1.20
2022-09-02T22:38:56.054Z,0.90
2022-09-02T22:42:03.996Z,1.00
2022-09-02T22:45:19.403Z,1.00
2022-09-02T22:48:32.168Z,0.83
2022-09-02T22:51:45.092Z,1.13
2022-09-02T22:54:32.065Z,1.00
2022-09-02T22:57:44.044Z,1.10
2022-09-02T23:00:39.162Z,1.30
2022-09-02T23:03:42.735Z,1.27
2022-09-02T23:06:31.725Z,1.00
2022-09-02T23:09:18.695Z,1.10
2022-09-02T23:12:18.476Z,1.03
2022-09-02T23:15:29.339Z,1.10
2022-09-02T23:18:29.582Z,1.10
2022-09-02T23:21:37.158Z,1.20
2022-09-02T23:24:32.895Z,0.97
2022-09-02T23:27:44.236Z,1.10
2022-09-02T23:30:32.316Z,1.10
2022-09-02T23:33:33.900Z,1.13
2022-09-02T23:36:52.170Z,1.10
2022-09-02T23:39:56.231Z,0.97
2022-09-02T23:42:43.291Z,1.10
2022-09-02T23:45:32.927Z,0.80
2022-09-02T23:48:22.846Z,1.03
2022-09-02T23:51:40.905Z,1.13
2022-09-02T23:54:50.745Z,1.10
2022-09-02T23:58:09.591Z,1.43
